Time;durP1;ratioP1;P1;durP2;ratioP2;P2;SDS_P1;SDS_P2;PMS_P1;PMS_P2;Temp;Humidity;BMP_temperature;BMP_pressure;BME280_temperature;BME280_humidity;BME280_pressure;Samples;Min_cycle;Max_cycle;Signal;HPM_P1;HPM_P2
2024/03/26 00:04:21;;;;;;;0.00;0.00;;;;;;;-145.06;100.00;53305.13;10477988;28;20103;-68
2024/03/26 00:09:22;;;;;;;0.00;0.00;;;;;;;-145.06;100.00;53284.88;10471542;28;20024;-69
2024/03/26 00:14:22;;;;;;;0.05;0.05;;;;;;;-145.06;100.00;53272.75;10469562;28;20037;-68
2024/03/26 00:19:23;;;;;;;0.00;0.00;;;;;;;-145.06;100.00;53252.50;10468304;28;20028;-67
2024/03/26 00:24:23;;;;;;;0.00;0.00;;;;;;;-145.06;100.00;53234.25;10474169;28;20025;-67
2024/03/26 00:29:23;;;;;;;0.00;0.00;;;;;;;-145.06;100.00;53220.09;10471227;28;20020;-68
2024/03/26 00:34:24;;;;;;;0.03;0.03;;;;;;;-145.06;100.00;53199.84;10474222;28;20111;-68
2024/03/26 00:39:24;;;;;;;0.00;0.00;;;;;;;-145.06;100.00;53199.84;10470240;28;20085;-67
2024/03/26 00:44:24;;;;;;;0.00;0.00;;;;;;;-145.06;100.00;53222.13;10470372;28;20039;-67
2024/03/26 00:49:24;;;;;;;0.00;0.00;;;;;;;-145.06;100.00;53230.22;10472265;28;20017;-67
2024/03/26 00:54:25;;;;;;;0.00;0.00;;;;;;;-145.06;100.00;53224.13;10465695;28;20394;-67
2024/03/26 00:59:25;;;;;;;0.00;0.00;;;;;;;-145.06;100.00;53234.25;10471632;28;20028;-67
2024/03/26 01:04:25;;;;;;;0.00;0.00;;;;;;;-145.06;100.00;53256.53;10468157;28;20100;-67
2024/03/26 01:09:26;;;;;;;0.10;0.10;;;;;;;-145.06;100.00;53254.50;10471933;28;20432;-67
2024/03/26 01:14:26;;;;;;;0.00;0.00;;;;;;;-145.06;100.00;53212.00;10473158;28;20391;-67
2024/03/26 01:19:26;;;;;;;0.00;0.00;;;;;;;-145.06;100.00;53165.41;10464581;28;20028;-67
2024/03/26 01:24:26;;;;;;;0.00;0.00;;;;;;;-145.06;100.00;53177.56;10470865;28;20024;-67
2024/03/26 01:29:27;;;;;;;0.00;0.00;;;;;;;-145.06;100.00;53205.91;10463298;28;20071;-67
2024/03/26 01:34:28;;;;;;;0.05;0.05;;;;;;;-145.06;100.00;53189.72;10466248;28;20023;-67
2024/03/26 01:39:28;;;;;;;0.00;0.00;;;;;;;-145.06;100.00;53191.75;10465630;28;20021;-67
2024/03/26 01:44:29;;;;;;;0.00;0.00;;;;;;;-145.06;100.00;53171.50;10464148;28;20046;-67
2024/03/26 01:49:32;;;;;;;0.00;0.00;;;;;;;-145.06;100.00;53177.56;10462424;28;20108;-67
2024/03/26 01:54:32;;;;;;;0.00;0.00;;;;;;;-145.06;100.00;53169.47;10464586;28;20040;-66
2024/03/26 01:59:33;;;;;;;0.00;0.00;;;;;;;-145.06;100.00;53131.00;10466840;28;20029;-67
2024/03/26 02:04:33;;;;;;;0.00;0.00;;;;;;;-145.06;100.00;53126.94;10469044;28;20017;-67
2024/03/26 02:09:34;;;;;;;0.00;0.00;;;;;;;-145.06;100.00;53126.94;10467691;28;20267;-66
2024/03/26 02:14:34;;;;;;;0.00;0.00;;;;;;;-145.06;100.00;53145.16;10467409;28;20021;-66
2024/03/26 02:19:35;;;;;;;0.00;0.00;;;;;;;-145.06;100.00;53139.09;10469056;28;20029;-66
2024/03/26 02:24:35;;;;;;;0.00;0.00;;;;;;;-145.06;100.00;53159.34;10472018;28;20009;-66
2024/03/26 02:29:36;;;;;;;0.00;0.00;;;;;;;-145.06;100.00;53139.09;10470773;28;20397;-66
2024/03/26 02:34:36;;;;;;;0.00;0.00;;;;;;;-145.06;100.00;53171.50;10467434;28;20031;-66
2024/03/26 02:39:36;;;;;;;0.00;0.00;;;;;;;-145.06;100.00;53165.41;10466370;28;20264;-66
2024/03/26 02:44:36;;;;;;;0.00;0.00;;;;;;;-145.06;100.00;53179.59;10462284;28;20021;-67
2024/03/26 02:49:37;;;;;;;0.00;0.00;;;;;;;-145.06;100.00;53209.97;10465856;28;20025;-66
2024/03/26 02:54:37;;;;;;;0.00;0.00;;;;;;;-145.06;100.00;53216.03;10464360;28;20021;-66
2024/03/26 02:59:37;;;;;;;0.00;0.00;;;;;;;-145.06;100.00;53228.19;10464658;28;20104;-67
2024/03/26 03:04:38;;;;;;;0.05;0.05;;;;;;;-145.06;100.00;53238.31;10466275;28;20274;-67
2024/03/26 03:09:38;;;;;;;0.05;0.05;;;;;;;-145.06;100.00;53262.63;10467873;28;20468;-67
2024/03/26 03:14:38;;;;;;;0.00;0.00;;;;;;;-145.06;100.00;53260.59;10469561;28;20029;-67
2024/03/26 03:19:39;;;;;;;0.00;0.00;;;;;;;-145.06;100.00;53244.38;10475886;28;20024;-67
2024/03/26 03:24:39;;;;;;;0.10;0.10;;;;;;;-145.06;100.00;53209.97;10486133;28;20315;-67
2024/03/26 03:29:40;;;;;;;0.00;0.00;;;;;;;-145.06;100.00;53230.22;10482906;28;20029;-67
2024/03/26 03:34:40;;;;;;;0.00;0.00;;;;;;;-145.06;100.00;53205.91;10483078;28;20063;-66
2024/03/26 03:39:40;;;;;;;0.00;0.00;;;;;;;-145.06;100.00;53195.78;10479123;28;20025;-67
2024/03/26 03:44:41;;;;;;;0.00;0.00;;;;;;;-145.06;100.00;53218.06;10475076;28;20404;-66
2024/03/26 03:49:41;;;;;;;0.00;0.00;;;;;;;-145.06;100.00;53216.03;10481729;28;20029;-66
2024/03/26 03:54:41;;;;;;;0.00;0.00;;;;;;;-145.06;100.00;53256.53;10475456;28;20025;-67
2024/03/26 03:59:43;;;;;;;0.00;0.00;;;;;;;-145.06;100.00;53260.59;10486582;28;20740;-66
2024/03/26 04:04:43;;;;;;;0.00;0.00;;;;;;;-145.06;100.00;53274.75;10475249;28;20082;-66
2024/03/26 04:09:44;;;;;;;0.00;0.00;;;;;;;-145.06;100.00;53276.78;10477452;28;20029;-66
2024/03/26 04:14:44;;;;;;;0.00;0.00;;;;;;;-145.06;100.00;53274.75;10472163;28;20296;-66
2024/03/26 04:19:44;;;;;;;0.00;0.00;;;;;;;-145.06;100.00;53290.97;10481438;28;20033;-67
2024/03/26 04:24:44;;;;;;;0.00;0.00;;;;;;;-145.06;100.00;53295.00;10479439;28;20481;-66
2024/03/26 04:29:45;;;;;;;0.00;0.00;;;;;;;-145.06;100.00;53276.78;10481530;28;20020;-65
2024/03/26 04:34:45;;;;;;;0.00;0.00;;;;;;;-145.06;100.00;53256.53;10480361;28;20275;-66
2024/03/26 04:39:48;;;;;;;0.00;0.00;;;;;;;-145.06;100.00;53268.69;10472524;28;20099;-65
2024/03/26 04:44:49;;;;;;;0.00;0.00;;;;;;;-145.06;100.00;53295.00;10473232;28;20059;-66
2024/03/26 04:49:49;;;;;;;0.10;0.10;;;;;;;-145.06;100.00;53232.25;10474215;28;20592;-66
2024/03/26 04:54:49;;;;;;;0.00;0.00;;;;;;;-145.06;100.00;53236.28;10483122;28;20267;-65
2024/03/26 04:59:50;;;;;;;0.00;0.00;;;;;;;-145.06;100.00;53193.78;10476582;28;20047;-66
2024/03/26 05:04:50;;;;;;;0.00;0.00;;;;;;;-145.06;100.00;53216.03;10451631;28;20066;-66
2024/03/26 05:09:50;;;;;;;0.00;0.00;;;;;;;-145.06;100.00;53171.50;10477685;28;20398;-66
2024/03/26 05:14:50;;;;;;;0.00;0.00;;;;;;;-145.06;100.00;53141.13;10470690;28;20016;-65
2024/03/26 05:19:51;;;;;;;0.00;0.00;;;;;;;-145.06;100.00;53118.84;10476841;28;20023;-66
2024/03/26 05:24:52;;;;;;;0.00;0.00;;;;;;;-145.06;100.00;53163.41;10475821;28;20085;-66
2024/03/26 05:29:52;;;;;;;0.00;0.00;;;;;;;-145.06;100.00;53218.06;10472605;28;20696;-66
2024/03/26 05:34:52;;;;;;;0.00;0.00;;;;;;;-145.06;100.00;53244.38;10476556;28;20031;-66
2024/03/26 05:39:53;;;;;;;0.00;0.00;;;;;;;-145.06;100.00;53248.44;10474867;28;20027;-66
2024/03/26 05:44:53;;;;;;;0.00;0.00;;;;;;;-145.06;100.00;53254.50;10478902;28;20066;-66
2024/03/26 05:49:54;;;;;;;0.00;0.00;;;;;;;-145.06;100.00;53272.75;10482696;28;20029;-66
2024/03/26 05:54:54;;;;;;;0.00;0.00;;;;;;;-145.06;100.00;53272.75;10477675;28;20405;-66
2024/03/26 05:59:54;;;;;;;0.00;0.00;;;;;;;-145.06;100.00;53301.09;10479423;28;20012;-65
2024/03/26 06:04:55;;;;;;;0.00;0.00;;;;;;;-145.06;100.00;53313.22;10479449;28;20081;-67
2024/03/26 06:09:55;;;;;;;0.00;0.00;;;;;;;-145.06;100.00;53313.22;10480483;28;20029;-66
2024/03/26 06:14:55;;;;;;;0.00;0.00;;;;;;;-145.06;100.00;53359.81;10473913;28;20029;-66
2024/03/26 06:19:55;;;;;;;0.00;0.00;;;;;;;-145.06;100.00;53363.84;10474526;28;20025;-66
2024/03/26 06:24:56;;;;;;;0.00;0.00;;;;;;;-145.06;100.00;53345.63;10479041;28;20048;-66
2024/03/26 06:29:56;;;;;;;0.00;0.00;;;;;;;-145.06;100.00;53349.69;10478683;28;20263;-67
2024/03/26 06:34:56;;;;;;;0.00;0.00;;;;;;;-145.06;100.00;53203.91;10477570;28;20263;-66
2024/03/26 06:39:57;;;;;;;0.00;0.00;;;;;;;-145.06;100.00;53163.41;10479307;28;20020;-67
2024/03/26 06:44:57;;;;;;;0.00;0.00;;;;;;;-145.06;94.51;53159.34;10483788;28;20021;-67
2024/03/26 06:49:57;;;;;;;0.00;0.00;;;;;;;-145.06;87.51;53064.19;10480235;28;20172;-67
2024/03/26 06:54:58;;;;;;;0.00;0.00;;;;;;;-145.06;83.37;53212.00;10471127;28;20697;-67
2024/03/26 06:59:58;;;;;;;0.05;0.05;;;;;;;-145.06;85.53;53199.84;10478047;28;20017;-67
2024/03/26 07:04:58;;;;;;;0.00;0.00;;;;;;;-145.06;82.69;53222.13;10488561;28;20436;-67
2024/03/26 07:09:59;;;;;;;0.00;0.00;;;;;;;-145.06;84.74;53238.31;10478647;28;20031;-67
2024/03/26 07:14:59;;;;;;;0.00;0.00;;;;;;;-145.06;84.42;53207.94;10488087;28;20020;-67
2024/03/26 07:19:59;;;;;;;0.00;0.00;;;;;;;-145.06;82.68;53220.09;10474863;28;20393;-67
2024/03/26 07:25:00;;;;;;;0.00;0.00;;;;;;;-145.06;79.74;53226.16;10488137;28;20069;-67
2024/03/26 07:30:04;;;;;;;0.00;0.00;;;;;;;-145.06;79.02;53135.06;10482332;28;20382;-67
2024/03/26 07:35:04;;;;;;;0.10;0.10;;;;;;;-145.06;74.87;53167.44;10480100;28;20169;-67
2024/03/26 07:40:09;;;;;;;0.10;0.10;;;;;;;-145.06;74.76;53163.41;10483640;28;20480;-67
2024/03/26 07:45:09;;;;;;;0.08;0.08;;;;;;;-145.06;74.51;53106.69;10480895;28;20504;-67
2024/03/26 07:50:09;;;;;;;0.00;0.00;;;;;;;-145.06;68.49;53108.72;10484683;28;20012;-67
2024/03/26 07:55:10;;;;;;;0.00;0.00;;;;;;;-145.06;66.17;53066.22;10481674;28;20021;-67
2024/03/26 08:00:11;;;;;;;0.10;0.10;;;;;;;-145.06;64.18;53084.44;10482933;28;20032;-67
2024/03/26 08:05:11;;;;;;;0.10;0.10;;;;;;;-145.06;62.81;53047.97;10476442;28;20332;-67
2024/03/26 08:10:11;;;;;;;0.10;0.10;;;;;;;-145.06;62.20;53056.09;10480790;28;20096;-68
2024/03/26 08:15:12;;;;;;;0.10;0.10;;;;;;;-145.06;59.55;53050.00;10469837;28;20025;-67
2024/03/26 08:20:13;;;;;;;0.00;0.00;;;;;;;-145.06;57.71;53131.00;10476035;28;20017;-67
2024/03/26 08:25:14;;;;;;;0.10;0.10;;;;;;;-145.06;60.34;53195.78;10476043;28;20522;-67
2024/03/26 08:30:14;;;;;;;0.10;0.10;;;;;;;-145.06;61.57;53145.16;10482122;28;20034;-67
2024/03/26 08:35:14;;;;;;;0.10;0.10;;;;;;;-145.06;60.23;53191.75;10481044;28;20333;-66
2024/03/26 08:40:15;;;;;;;0.10;0.10;;;;;;;-145.06;58.77;53199.84;10477075;28;20104;-66
2024/03/26 08:45:15;;;;;;;0.00;0.00;;;;;;;-145.06;61.73;53238.31;10468274;28;20032;-66
2024/03/26 08:50:17;;;;;;;0.10;0.10;;;;;;;-145.06;61.02;53220.09;10477452;28;20025;-68
2024/03/26 08:55:17;;;;;;;0.00;0.00;;;;;;;-145.06;61.63;53254.50;10474739;28;20356;-66
2024/03/26 09:00:18;;;;;;;0.00;0.00;;;;;;;-145.06;60.31;53260.59;10476868;28;20012;-65
2024/03/26 09:05:18;;;;;;;0.10;0.10;;;;;;;-145.06;62.12;53242.38;10477831;28;20271;-66
2024/03/26 09:10:19;;;;;;;0.10;0.10;;;;;;;-145.06;59.42;53260.59;10476570;28;20032;-66
2024/03/26 09:15:19;;;;;;;0.10;0.10;;;;;;;-145.06;57.24;53226.16;10482531;28;20052;-67
2024/03/26 09:20:19;;;;;;;0.10;0.10;;;;;;;-145.06;57.40;53145.16;10477879;28;20031;-68
2024/03/26 09:25:20;;;;;;;0.10;0.10;;;;;;;-145.06;56.17;53141.13;10477542;28;20520;-68
2024/03/26 09:30:20;;;;;;;0.10;0.10;;;;;;;-145.06;53.51;53197.81;10480260;28;20523;-68
2024/03/26 09:35:21;;;;;;;0.10;0.10;;;;;;;-145.06;50.35;53254.50;10485469;28;20416;-67
2024/03/26 09:40:21;;;;;;;0.10;0.10;;;;;;;-145.06;50.62;53254.50;10475846;28;20547;-67
2024/03/26 09:45:23;;;;;;;0.10;0.10;;;;;;;-145.06;52.64;53226.16;10475575;28;20021;-68
2024/03/26 09:50:27;;;;;;;0.10;0.10;;;;;;;-145.06;47.93;53357.78;10471250;28;20025;-69
2024/03/26 09:55:28;;;;;;;0.08;0.08;;;;;;;-145.06;49.47;53288.94;10477227;28;20099;-68
2024/03/26 10:00:31;;;;;;;0.10;0.10;;;;;;;-145.06;47.26;53341.59;10475499;28;20112;-67
2024/03/26 10:05:31;;;;;;;0.10;0.10;;;;;;;-145.06;48.35;53305.13;10477308;28;20070;-69
2024/03/26 10:10:32;;;;;;;0.00;0.00;;;;;;;-145.06;46.06;53365.88;10482584;28;20029;-68
2024/03/26 10:15:34;;;;;;;0.10;0.10;;;;;;;-145.06;45.11;53461.06;10482338;28;20478;-68
2024/03/26 10:20:34;;;;;;;0.10;0.10;;;;;;;-145.06;43.70;53491.44;10477855;28;20095;-69
2024/03/26 10:25:35;;;;;;;0.10;0.10;;;;;;;-145.06;45.58;53499.53;10485407;28;20025;-69
2024/03/26 10:30:35;;;;;;;0.10;0.10;;;;;;;-145.06;45.90;53477.25;10486460;28;20279;-68
2024/03/26 10:35:40;;;;;;;0.10;0.10;;;;;;;-145.06;47.14;53434.72;10483574;28;20024;-67
2024/03/26 10:41:00;;;;;;;0.00;0.00;;;;;;;-145.06;47.36;53424.59;10482071;28;20088;-69
2024/03/26 10:46:00;;;;;;;0.10;0.10;;;;;;;-145.06;46.72;53396.25;10482465;28;20378;-67
2024/03/26 10:51:01;;;;;;;0.00;0.00;;;;;;;-145.06;46.71;53442.81;10484438;28;20066;-68
2024/03/26 10:56:01;;;;;;;0.10;0.10;;;;;;;-145.06;48.10;53442.81;10483045;28;20024;-67
2024/03/26 11:01:04;;;;;;;0.10;0.10;;;;;;;-145.06;47.22;53477.25;10482246;28;20021;-67
2024/03/26 11:06:06;;;;;;;0.10;0.10;;;;;;;-145.06;46.60;53479.28;10477431;28;20077;-67
2024/03/26 11:11:06;;;;;;;0.10;0.10;;;;;;;-145.06;49.99;53394.22;10482488;28;20029;-67
2024/03/26 11:16:06;;;;;;;0.00;0.00;;;;;;;-145.06;50.49;53380.06;10482887;28;20025;-67
2024/03/26 11:21:10;;;;;;;0.10;0.10;;;;;;;-145.06;48.43;53440.81;10479505;28;20335;-68
2024/03/26 11:26:25;;;;;;;0.10;0.10;;;;;;;-145.06;48.83;53448.91;10481375;28;20035;-67
2024/03/26 11:31:26;;;;;;;0.10;0.10;;;;;;;-145.06;49.63;53450.94;10481248;28;20436;-69
2024/03/26 11:36:27;;;;;;;0.10;0.10;;;;;;;-145.06;48.55;53463.06;10482935;28;20017;-67
2024/03/26 11:41:29;;;;;;;0.10;0.10;;;;;;;-145.06;48.17;53465.09;10481328;28;20024;-67
2024/03/26 11:46:29;;;;;;;0.03;0.03;;;;;;;-145.06;45.91;53544.06;10485630;28;20024;-67
2024/03/26 11:51:30;;;;;;;0.10;0.10;;;;;;;-145.06;45.73;53525.84;10483514;28;20027;-67
2024/03/26 11:56:32;;;;;;;0.10;0.10;;;;;;;-145.06;46.71;53483.31;10479385;28;20017;-68
2024/03/26 12:01:32;;;;;;;0.10;0.10;;;;;;;-145.06;43.02;53590.66;10487251;28;20066;-66
2024/03/26 12:06:33;;;;;;;0.10;0.10;;;;;;;-145.06;43.09;53574.44;10481852;28;20036;-66
2024/03/26 12:11:33;;;;;;;0.10;0.10;;;;;;;-145.06;47.77;53438.78;10477340;28;20025;-67
2024/03/26 12:16:33;;;;;;;0.10;0.10;;;;;;;-145.06;44.59;53542.06;10482212;28;20035;-67
2024/03/26 12:21:34;;;;;;;0.10;0.10;;;;;;;-145.06;46.29;53535.97;10483204;28;20024;-67
2024/03/26 12:26:34;;;;;;;0.00;0.00;;;;;;;-145.06;46.42;53527.88;10473379;28;20090;-68
2024/03/26 12:31:36;;;;;;;0.10;0.10;;;;;;;-145.06;46.42;53560.28;10476739;28;20516;-67
2024/03/26 12:36:37;;;;;;;0.10;0.10;;;;;;;-145.06;47.01;53556.22;10477323;28;20073;-66
2024/03/26 12:41:38;;;;;;;0.10;0.10;;;;;;;-145.06;46.91;53564.31;10476850;28;20020;-67
2024/03/26 12:46:38;;;;;;;0.10;0.10;;;;;;;-145.06;46.08;53576.47;10483254;28;20362;-67
2024/03/26 12:51:39;;;;;;;0.10;0.10;;;;;;;-145.06;44.11;53629.13;10480363;28;20112;-68
2024/03/26 12:56:39;;;;;;;0.10;0.10;;;;;;;-145.06;44.43;53608.88;10478654;28;20496;-67
2024/03/26 13:01:40;;;;;;;0.10;0.10;;;;;;;-145.06;45.28;53564.31;10475792;28;20025;-68
2024/03/26 13:06:40;;;;;;;0.10;0.10;;;;;;;-145.06;45.26;53527.88;10479080;28;20097;-68
2024/03/26 13:11:40;;;;;;;0.10;0.10;;;;;;;-145.06;43.06;53604.81;10480817;28;20291;-66
2024/03/26 13:16:41;;;;;;;0.10;0.10;;;;;;;-145.06;43.70;53584.56;10478518;28;20047;-68
2024/03/26 13:21:45;;;;;;;0.05;0.05;;;;;;;-145.06;43.70;53596.72;10480191;28;20021;-68
2024/03/26 13:26:48;;;;;;;0.10;0.10;;;;;;;-145.06;43.61;53566.34;10482935;28;20038;-68
2024/03/26 13:31:48;;;;;;;0.00;0.00;;;;;;;-145.06;43.73;53592.69;10479481;28;20028;-68
2024/03/26 13:36:48;;;;;;;0.00;0.00;;;;;;;-145.06;44.50;53623.06;10477231;28;20025;-67
2024/03/26 13:41:49;;;;;;;0.10;0.10;;;;;;;-145.06;45.38;53556.22;10476127;28;20481;-67
2024/03/26 13:46:52;;;;;;;0.10;0.10;;;;;;;-145.06;46.23;53550.16;10477685;28;20028;-68
2024/03/26 13:51:52;;;;;;;0.10;0.10;;;;;;;-145.06;45.29;53576.47;10474158;28;20028;-67
2024/03/26 13:56:52;;;;;;;0.10;0.10;;;;;;;-145.06;45.91;53572.44;10479274;28;20027;-68
2024/03/26 14:01:52;;;;;;;0.00;0.00;;;;;;;-145.06;46.15;53582.56;10477239;28;20024;-69
2024/03/26 14:06:53;;;;;;;0.10;0.10;;;;;;;-145.06;47.11;53535.97;10473721;28;20017;-68
2024/03/26 14:11:53;;;;;;;0.10;0.10;;;;;;;-145.06;48.30;53505.59;10477449;28;20067;-68
2024/03/26 14:16:53;;;;;;;0.10;0.10;;;;;;;-145.06;46.94;53572.44;10482596;28;20033;-69
2024/03/26 14:21:54;;;;;;;0.00;0.00;;;;;;;-145.06;46.74;53544.06;10476393;28;20040;-68
2024/03/26 14:26:55;;;;;;;0.10;0.10;;;;;;;-145.06;48.10;53578.50;10478753;28;20048;-68
2024/03/26 14:31:57;;;;;;;0.10;0.10;;;;;;;-145.06;47.83;53586.59;10478970;28;20082;-68
2024/03/26 14:36:58;;;;;;;0.10;0.10;;;;;;;-145.06;46.11;53639.25;10481422;28;20012;-70
2024/03/26 14:41:58;;;;;;;0.10;0.10;;;;;;;-145.06;46.47;53643.31;10470667;28;20059;-66
2024/03/26 14:46:58;;;;;;;0.10;0.10;;;;;;;-145.06;47.32;53606.84;10480402;28;20037;-68
2024/03/26 14:51:59;;;;;;;0.10;0.10;;;;;;;-145.06;47.36;53631.16;10477951;28;20740;-66
2024/03/26 14:56:59;;;;;;;0.10;0.10;;;;;;;-145.06;47.39;53677.72;10485154;28;20036;-67
2024/03/26 15:01:59;;;;;;;0.08;0.08;;;;;;;-145.06;47.93;53612.94;10482774;28;20028;-68
2024/03/26 15:07:06;;;;;;;0.10;0.10;;;;;;;-145.06;49.10;53582.56;10488211;28;20469;-68
2024/03/26 15:12:07;;;;;;;0.10;0.10;;;;;;;-145.06;49.40;53584.56;10481285;28;20332;-67
2024/03/26 15:17:07;;;;;;;0.10;0.10;;;;;;;-145.06;50.33;53606.84;10484312;28;20092;-68
2024/03/26 15:22:07;;;;;;;0.00;0.00;;;;;;;-145.06;50.96;53576.47;10485354;28;20023;-68
2024/03/26 15:32:14;;;;;;;0.00;0.00;;;;;;;-145.06;52.43;53568.38;10477555;28;20378;-67
2024/03/26 15:37:14;;;;;;;0.10;0.10;;;;;;;-145.06;52.21;53627.09;10478943;28;20111;-67
2024/03/26 15:42:16;;;;;;;0.00;0.00;;;;;;;-145.06;53.71;53592.69;10475234;28;20512;-67
2024/03/26 15:47:17;;;;;;;0.10;0.10;;;;;;;-145.06;55.50;53558.25;10478884;28;20059;-68
2024/03/26 15:52:17;;;;;;;0.10;0.10;;;;;;;-145.06;55.45;53540.03;10473095;28;20036;-67
2024/03/26 15:57:17;;;;;;;0.00;0.00;;;;;;;-145.06;56.21;53550.16;10473281;28;20032;-68
2024/03/26 16:02:18;;;;;;;0.10;0.10;;;;;;;-145.06;56.93;53558.25;10480982;28;20020;-68
2024/03/26 16:07:18;;;;;;;0.10;0.10;;;;;;;-145.06;57.30;53572.44;10481489;28;20079;-68
2024/03/26 16:12:18;;;;;;;0.10;0.10;;;;;;;-145.06;59.10;53542.06;10474370;28;20123;-67
2024/03/26 16:17:19;;;;;;;0.10;0.10;;;;;;;-145.06;58.67;53572.44;10480876;28;20024;-68
2024/03/26 16:22:19;;;;;;;0.10;0.10;;;;;;;-145.06;59.10;53564.31;10471234;28;20028;-67
2024/03/26 16:27:19;;;;;;;0.10;0.10;;;;;;;-145.06;59.09;53572.44;10479976;28;20513;-68
2024/03/26 16:32:19;;;;;;;0.10;0.10;;;;;;;-145.06;60.56;53552.19;10472784;28;20388;-68
2024/03/26 16:37:20;;;;;;;0.00;0.00;;;;;;;-145.06;60.95;53576.47;10465208;28;20397;-69
2024/03/26 16:42:20;;;;;;;0.10;0.10;;;;;;;-145.06;63.31;53554.19;10477230;28;20436;-68
2024/03/26 16:47:20;;;;;;;0.00;0.00;;;;;;;-145.06;64.08;53550.16;10474240;28;20024;-69
2024/03/26 16:52:21;;;;;;;0.10;0.10;;;;;;;-145.06;65.09;53535.97;10480612;28;20017;-69
2024/03/26 16:57:21;;;;;;;0.00;0.00;;;;;;;-145.06;65.93;53521.81;10471268;28;20158;-69
2024/03/26 17:02:21;;;;;;;0.10;0.10;;;;;;;-145.06;68.16;53513.69;10477614;28;20021;-69
2024/03/26 17:07:21;;;;;;;0.10;0.10;;;;;;;-145.06;68.75;53515.72;10484988;28;20263;-68
2024/03/26 17:12:22;;;;;;;0.10;0.10;;;;;;;-145.06;69.39;53499.53;10477908;28;20433;-69
2024/03/26 17:17:22;;;;;;;0.10;0.10;;;;;;;-145.06;70.26;53523.81;10475043;28;20024;-69
2024/03/26 17:22:23;;;;;;;0.10;0.10;;;;;;;-145.06;70.91;53483.31;10481450;28;20020;-68
2024/03/26 17:27:23;;;;;;;0.00;0.00;;;;;;;-145.06;71.04;53505.59;10475127;28;20036;-69
2024/03/26 17:32:24;;;;;;;0.10;0.10;;;;;;;-145.06;71.62;53507.63;10472097;28;20493;-68
2024/03/26 17:37:24;;;;;;;0.10;0.10;;;;;;;-145.06;73.08;53497.50;10480882;28;20044;-68
2024/03/26 17:42:29;;;;;;;0.10;0.10;;;;;;;-145.06;72.80;53483.31;10478250;28;20481;-68
2024/03/26 17:47:30;;;;;;;0.00;0.00;;;;;;;-145.06;73.40;53499.53;10476899;28;20259;-71
2024/03/26 17:52:30;;;;;;;0.10;0.10;;;;;;;-145.06;74.45;53471.19;10476654;28;20432;-69
2024/03/26 17:57:30;;;;;;;0.03;0.03;;;;;;;-145.06;74.13;53495.47;10480974;28;20469;-69
2024/03/26 18:02:31;;;;;;;0.00;0.00;;;;;;;-145.06;74.15;53459.03;10480582;28;20267;-69
2024/03/26 18:07:31;;;;;;;0.00;0.00;;;;;;;-145.06;73.97;53493.44;10473583;28;20458;-69
2024/03/26 18:12:31;;;;;;;0.00;0.00;;;;;;;-145.06;73.41;53481.31;10478917;28;20405;-69
2024/03/26 18:17:32;;;;;;;0.10;0.10;;;;;;;-145.06;73.60;53454.97;10478975;28;20027;-69
2024/03/26 18:22:32;;;;;;;0.10;0.10;;;;;;;-145.06;73.47;53481.31;10481381;28;20385;-68
2024/03/26 18:27:34;;;;;;;0.10;0.10;;;;;;;-145.06;73.07;53479.28;10480484;28;20413;-69
2024/03/26 18:32:35;;;;;;;0.10;0.10;;;;;;;-145.06;72.83;53489.41;10486877;28;20024;-69
2024/03/26 18:37:35;;;;;;;0.10;0.10;;;;;;;-145.06;73.38;53491.44;10488922;28;20107;-69
2024/03/26 18:42:35;;;;;;;0.10;0.10;;;;;;;-145.06;73.01;53446.88;10483176;28;20170;-69
2024/03/26 18:47:36;;;;;;;0.10;0.10;;;;;;;-145.06;73.30;53454.97;10488886;28;20039;-68
2024/03/26 18:52:36;;;;;;;0.00;0.00;;;;;;;-145.06;73.20;53483.31;10490871;28;20024;-69
2024/03/26 18:57:37;;;;;;;0.10;0.10;;;;;;;-145.06;73.15;53505.59;10485831;28;20024;-69
2024/03/26 19:02:40;;;;;;;0.10;0.10;;;;;;;-145.06;73.40;53493.44;10487519;28;20015;-69
2024/03/26 19:07:41;;;;;;;0.10;0.10;;;;;;;-145.06;73.39;53479.28;10488936;28;20071;-69
2024/03/26 19:12:41;;;;;;;0.10;0.10;;;;;;;-145.06;72.77;53503.56;10484571;28;20040;-69
2024/03/26 19:17:41;;;;;;;0.10;0.10;;;;;;;-145.06;72.51;53485.34;10484206;28;20017;-69
2024/03/26 19:22:42;;;;;;;0.10;0.10;;;;;;;-145.06;73.86;53481.31;10488282;28;20067;-69
2024/03/26 19:27:42;;;;;;;0.10;0.10;;;;;;;-145.06;74.10;53438.78;10486663;28;20023;-69
2024/03/26 19:32:46;;;;;;;0.10;0.10;;;;;;;-145.06;74.46;53475.22;10479683;28;20536;-68
2024/03/26 19:37:46;;;;;;;0.10;0.10;;;;;;;-145.06;75.25;53493.44;10481501;28;20074;-69
2024/03/26 19:42:47;;;;;;;0.10;0.10;;;;;;;-145.06;75.81;53503.56;10476189;28;20029;-69
2024/03/26 19:47:47;;;;;;;0.10;0.10;;;;;;;-145.06;76.29;53457.00;10485638;28;20024;-68
2024/03/26 19:52:47;;;;;;;0.10;0.10;;;;;;;-145.06;76.97;53465.09;10479655;28;20119;-69
2024/03/26 19:57:48;;;;;;;0.10;0.10;;;;;;;-145.06;76.57;53499.53;10486771;28;20017;-69
2024/03/26 20:02:48;;;;;;;0.00;0.00;;;;;;;-145.06;76.71;53485.34;10480111;28;20096;-69
2024/03/26 20:07:48;;;;;;;0.10;0.10;;;;;;;-145.06;77.25;53454.97;10475800;28;20032;-68
2024/03/26 20:12:49;;;;;;;0.00;0.00;;;;;;;-145.06;75.68;53483.31;10477158;28;20020;-68
2024/03/26 20:17:49;;;;;;;0.10;0.10;;;;;;;-145.06;74.49;53491.44;10482361;28;20041;-68
2024/03/26 20:22:54;;;;;;;0.10;0.10;;;;;;;-145.06;73.48;53479.28;10485183;28;20017;-68
2024/03/26 20:27:54;;;;;;;0.10;0.10;;;;;;;-145.06;73.27;53497.50;10481637;28;20386;-69
2024/03/26 20:32:55;;;;;;;0.10;0.10;;;;;;;-145.06;73.78;53513.69;10467789;28;20019;-67
2024/03/26 20:37:55;;;;;;;0.10;0.10;;;;;;;-145.06;74.29;53503.56;10483896;28;20374;-68
2024/03/26 20:42:55;;;;;;;0.10;0.10;;;;;;;-145.06;74.31;53515.72;10477939;28;20025;-68
2024/03/26 20:47:56;;;;;;;0.10;0.10;;;;;;;-145.06;74.03;53535.97;10482097;28;20016;-68
2024/03/26 20:52:56;;;;;;;0.10;0.10;;;;;;;-145.06;74.11;53558.25;10472245;28;20477;-68
2024/03/26 20:57:58;;;;;;;0.00;0.00;;;;;;;-145.06;74.82;53519.78;10486461;28;20357;-68
2024/03/26 21:02:58;;;;;;;0.10;0.10;;;;;;;-145.06;75.13;53523.81;10488421;28;20020;-68
2024/03/26 21:07:58;;;;;;;0.10;0.10;;;;;;;-145.06;76.61;53527.88;10484611;28;20086;-69
2024/03/26 21:12:59;;;;;;;0.00;0.00;;;;;;;-145.06;76.89;53529.91;10480531;28;20081;-67
2024/03/26 21:17:59;;;;;;;0.10;0.10;;;;;;;-145.06;77.52;53538.00;10475544;28;20485;-67
2024/03/26 21:22:59;;;;;;;0.10;0.10;;;;;;;-145.06;77.26;53570.41;10478788;28;20020;-67
2024/03/26 21:28:00;;;;;;;0.10;0.10;;;;;;;-145.06;77.70;53562.31;10481471;28;20547;-67
2024/03/26 21:33:04;;;;;;;0.10;0.10;;;;;;;-145.06;78.09;53544.06;10475543;28;20644;-67
2024/03/26 21:38:04;;;;;;;0.10;0.10;;;;;;;-145.06;78.29;53538.00;10481134;28;20028;-67
2024/03/26 21:43:05;;;;;;;0.10;0.10;;;;;;;-145.06;78.81;53566.34;10481891;28;20024;-67
2024/03/26 21:48:05;;;;;;;0.00;0.00;;;;;;;-145.06;79.52;53560.28;10480062;28;20103;-68
2024/03/26 21:53:05;;;;;;;0.00;0.00;;;;;;;-145.06;80.10;53590.66;10479889;28;20057;-68
2024/03/26 21:58:06;;;;;;;0.10;0.10;;;;;;;-145.06;80.93;53576.47;10479592;28;20024;-68
2024/03/26 22:03:06;;;;;;;0.00;0.00;;;;;;;-145.06;81.64;53570.41;10484049;28;20024;-68
2024/03/26 22:08:06;;;;;;;0.10;0.10;;;;;;;-145.06;82.34;53600.78;10490690;28;20070;-67
2024/03/26 22:13:07;;;;;;;0.00;0.00;;;;;;;-145.06;82.26;53606.84;10485175;28;20279;-67
2024/03/26 22:18:07;;;;;;;0.00;0.00;;;;;;;-145.06;82.92;53612.94;10489637;28;20031;-67
2024/03/26 22:23:08;;;;;;;0.00;0.00;;;;;;;-145.06;83.29;53594.69;10492702;28;20091;-67
2024/03/26 22:28:08;;;;;;;0.10;0.10;;;;;;;-145.06;83.06;53582.56;10489179;28;20035;-68
2024/03/26 22:33:08;;;;;;;0.00;0.00;;;;;;;-145.06;83.25;53600.78;10484439;28;20021;-68
2024/03/26 22:38:09;;;;;;;0.10;0.10;;;;;;;-145.06;83.20;53596.72;10486726;28;20031;-67
2024/03/26 22:43:09;;;;;;;0.03;0.03;;;;;;;-145.06;82.69;53594.69;10488096;28;20043;-68
2024/03/26 22:48:09;;;;;;;0.00;0.00;;;;;;;-145.06;83.22;53592.69;10490450;28;20024;-67